Time;durP1;ratioP1;P1;durP2;ratioP2;P2;SDS_P1;SDS_P2;PMS_P1;PMS_P2;Temp;Humidity;BMP_temperature;BMP_pressure;BME280_temperature;BME280_humidity;BME280_pressure;Samples;Min_cycle;Max_cycle;Signal;HPM_P1;HPM_P2
2022/06/03 04:56:52;;;;;;;20.20;19.00;;;17.80;99.90;;;;;;5097587;23;20499;-74
2022/06/03 04:59:56;;;;;;;19.77;18.30;;;18.30;99.90;;;;;;4981379;28;20499;-73
2022/06/03 05:03:00;;;;;;;18.07;16.90;;;18.70;99.90;;;;;;5004023;28;20478;-75
2022/06/03 05:06:00;;;;;;;20.80;19.23;;;18.90;99.90;;;;;;4992837;28;20537;-75
2022/06/03 05:09:01;;;;;;;21.83;20.33;;;19.30;99.90;;;;;;4990649;28;20450;-75
2022/06/03 05:12:09;;;;;;;20.73;19.30;;;19.40;99.90;;;;;;4991275;28;20823;-77
2022/06/03 05:15:23;;;;;;;21.17;19.53;;;19.70;99.90;;;;;;4991224;28;20792;-78
2022/06/03 05:18:16;;;;;;;19.67;18.00;;;19.70;99.90;;;;;;4990950;28;20482;-77
2022/06/03 05:21:04;;;;;;;18.87;17.30;;;20.00;99.90;;;;;;4963240;28;20975;-78
2022/06/03 05:23:47;;;;;;;17.97;16.77;;;20.00;99.90;;;;;;4990699;28;20480;-75
2022/06/03 05:27:03;;;;;;;19.27;18.00;;;20.00;99.90;;;;;;4990291;28;20455;-75
2022/06/03 05:30:07;;;;;;;18.10;16.80;;;20.30;99.90;;;;;;4930175;29;20464;-76
2022/06/03 05:33:14;;;;;;;19.10;17.87;;;20.60;99.90;;;;;;4990593;28;20451;-76
2022/06/03 05:36:18;;;;;;;20.50;19.10;;;21.10;99.90;;;;;;4990599;28;20457;-76
2022/06/03 05:39:20;;;;;;;19.17;17.97;;;21.20;99.90;;;;;;4990492;28;20482;-76
2022/06/03 05:42:27;;;;;;;18.47;17.37;;;21.30;99.90;;;;;;4998766;28;20458;-81
2022/06/03 05:45:21;;;;;;;18.00;16.90;;;21.10;99.90;;;;;;5001604;28;20498;-79
2022/06/03 05:47:54;;;;;;;19.53;18.27;;;20.80;99.90;;;;;;4994771;28;20458;-80
2022/06/03 05:50:28;;;;;;;18.47;17.10;;;20.90;99.90;;;;;;4995262;28;20996;-79
2022/06/03 05:53:12;;;;;;;18.77;17.50;;;21.30;99.90;;;;;;4996983;28;20446;-80
2022/06/03 05:55:49;;;;;;;18.20;17.10;;;21.80;99.90;;;;;;4994216;28;20598;-78
2022/06/03 05:58:40;;;;;;;19.80;18.40;;;22.20;99.90;;;;;;4994017;28;20492;-78
2022/06/03 06:01:21;;;;;;;19.90;18.50;;;22.60;99.90;;;;;;4994429;28;20842;-79
2022/06/03 06:03:52;;;;;;;19.43;18.10;;;22.70;99.90;;;;;;4999624;28;20462;-78
2022/06/03 06:06:35;;;;;;;20.23;18.30;;;22.90;99.70;;;;;;4998298;28;20521;-79
2022/06/03 06:09:17;;;;;;;21.10;19.50;;;23.10;99.40;;;;;;4993751;28;20960;-77
2022/06/03 06:12:00;;;;;;;21.17;19.67;;;23.60;98.80;;;;;;4993847;28;20517;-77
2022/06/03 06:14:40;;;;;;;20.67;19.40;;;24.30;97.10;;;;;;4993724;28;20936;-78
2022/06/03 06:17:22;;;;;;;17.63;16.53;;;24.80;95.80;;;;;;4994436;28;20485;-76
2022/06/03 06:19:55;;;;;;;18.00;16.80;;;24.70;95.50;;;;;;4994190;28;20482;-79
2022/06/03 06:22:29;;;;;;;18.70;17.80;;;24.50;95.80;;;;;;4994199;28;20537;-81
2022/06/03 06:25:06;;;;;;;19.03;17.60;;;24.30;95.90;;;;;;4994596;28;20481;-78
2022/06/03 06:28:00;;;;;;;17.73;16.73;;;23.90;96.40;;;;;;4993518;28;20442;-77
2022/06/03 06:30:56;;;;;;;19.00;17.80;;;23.60;97.20;;;;;;4993269;28;20546;-77
2022/06/03 06:33:49;;;;;;;17.00;16.20;;;23.70;97.30;;;;;;4993422;28;20482;-77
2022/06/03 06:36:49;;;;;;;17.97;16.87;;;24.00;96.90;;;;;;4993147;28;20482;-77
2022/06/03 06:39:30;;;;;;;18.10;17.20;;;24.30;96.00;;;;;;4993263;28;20853;-78
2022/06/03 06:42:04;;;;;;;19.50;18.07;;;24.50;95.60;;;;;;4993527;28;20455;-78
2022/06/03 06:44:38;;;;;;;17.73;16.67;;;24.80;95.50;;;;;;4993422;28;20450;-79
2022/06/03 06:47:15;;;;;;;18.50;17.50;;;24.90;95.30;;;;;;4993489;28;20447;-79
2022/06/03 06:49:50;;;;;;;18.90;17.20;;;25.30;94.60;;;;;;4993348;28;20517;-77
2022/06/03 06:52:30;;;;;;;19.20;18.00;;;25.80;93.90;;;;;;4992656;28;20492;-77
2022/06/03 06:55:06;;;;;;;20.10;19.00;;;26.00;93.30;;;;;;4993085;28;20513;-78
2022/06/03 06:57:40;;;;;;;19.20;18.10;;;26.80;92.10;;;;;;4993162;28;20465;-78
2022/06/03 07:00:16;;;;;;;17.87;16.63;;;27.20;91.10;;;;;;4993062;28;20490;-76
2022/06/03 07:02:47;;;;;;;18.20;17.30;;;27.90;89.80;;;;;;4993306;28;20864;-77
2022/06/03 07:05:20;;;;;;;19.17;17.97;;;28.10;87.30;;;;;;5000617;28;20462;-78
2022/06/03 07:07:52;;;;;;;18.13;17.33;;;28.00;86.30;;;;;;4994934;28;20459;-78
2022/06/03 07:10:25;;;;;;;17.53;16.63;;;27.80;86.70;;;;;;4995723;28;20816;-78
2022/06/03 07:13:01;;;;;;;18.40;17.03;;;27.90;86.40;;;;;;4997143;28;20451;-78
2022/06/03 07:15:41;;;;;;;17.70;16.70;;;27.60;87.10;;;;;;4995002;28;20690;-79
2022/06/03 07:21:09;;;;;;;16.53;15.73;;;28.30;86.20;;;;;;4993053;28;20470;-79
2022/06/03 07:23:45;;;;;;;17.10;16.10;;;28.90;83.40;;;;;;4993180;28;20453;-80
2022/06/03 07:26:19;;;;;;;17.90;16.50;;;29.00;82.50;;;;;;4992255;28;20454;-81
2022/06/03 07:28:54;;;;;;;17.40;16.60;;;29.50;80.40;;;;;;4992434;28;20439;-80
2022/06/03 07:31:24;;;;;;;16.57;15.70;;;29.50;80.20;;;;;;4992775;28;20831;-80
2022/06/03 07:33:58;;;;;;;18.47;17.20;;;29.30;79.90;;;;;;4992535;28;20458;-80
2022/06/03 07:36:42;;;;;;;17.50;16.40;;;29.90;78.30;;;;;;4992447;28;20852;-80
2022/06/03 07:39:31;;;;;;;18.00;16.90;;;29.70;79.00;;;;;;4992414;28;20544;-80
2022/06/03 07:42:07;;;;;;;18.13;17.00;;;29.80;78.50;;;;;;5001917;28;20455;-80
2022/06/03 07:44:44;;;;;;;16.80;15.80;;;30.30;76.30;;;;;;5003542;28;20450;-81
2022/06/03 07:47:13;;;;;;;18.33;17.40;;;30.60;75.00;;;;;;5004354;28;20462;-80
2022/06/03 07:49:41;;;;;;;17.97;17.17;;;30.60;74.50;;;;;;4993861;28;20455;-81
2022/06/03 07:52:13;;;;;;;17.67;16.83;;;30.40;74.20;;;;;;4992136;28;20443;-80
2022/06/03 07:54:50;;;;;;;18.13;17.20;;;29.80;75.60;;;;;;4992058;28;20511;-80
2022/06/03 07:57:21;;;;;;;18.40;17.40;;;29.90;77.00;;;;;;4991954;28;20466;-81
2022/06/03 07:59:49;;;;;;;18.40;17.50;;;30.60;74.80;;;;;;4991716;28;20486;-79
2022/06/03 08:02:18;;;;;;;17.77;16.87;;;30.90;73.70;;;;;;4991478;28;20458;-80
2022/06/03 08:04:47;;;;;;;18.83;17.80;;;31.60;72.70;;;;;;4991515;28;20458;-80
2022/06/03 08:12:58;;;;;;;15.57;14.97;;;32.30;68.10;;;;;;4991835;28;20797;-82
2022/06/03 08:15:29;;;;;;;16.73;15.80;;;32.40;66.70;;;;;;4991530;28;20462;-81
2022/06/03 08:17:57;;;;;;;17.13;16.33;;;31.50;69.00;;;;;;4991489;28;20458;-82
2022/06/03 08:20:27;;;;;;;16.73;15.87;;;31.70;69.70;;;;;;4991734;28;20486;-82
2022/06/03 08:22:54;;;;;;;18.07;17.27;;;32.10;68.10;;;;;;4991616;28;20458;-81
2022/06/03 08:25:25;;;;;;;17.80;17.00;;;32.80;66.70;;;;;;4991776;28;20571;-82
2022/06/03 08:27:53;;;;;;;16.70;15.90;;;32.70;66.50;;;;;;4991613;28;20454;-81
2022/06/03 08:30:23;;;;;;;18.70;17.60;;;33.30;65.40;;;;;;4991820;28;20995;-81
2022/06/03 08:32:54;;;;;;;17.23;16.40;;;33.40;64.20;;;;;;4991759;28;20458;-81
2022/06/03 08:35:24;;;;;;;16.10;15.50;;;34.40;62.10;;;;;;4991594;28;20459;-82
2022/06/03 08:37:54;;;;;;;17.00;16.00;;;35.00;59.90;;;;;;4991408;28;20458;-82
2022/06/03 08:40:30;;;;;;;16.23;15.60;;;35.40;58.40;;;;;;4991402;28;20491;-82
2022/06/03 08:43:05;;;;;;;18.33;17.47;;;35.60;58.00;;;;;;4991540;28;20454;-82
2022/06/03 08:45:40;;;;;;;18.30;17.40;;;35.60;57.00;;;;;;4991285;28;20516;-82
2022/06/03 08:48:14;;;;;;;16.83;16.07;;;35.80;57.40;;;;;;4991466;28;20462;-82
2022/06/03 08:50:43;;;;;;;16.50;15.83;;;35.50;57.30;;;;;;4991607;28;20470;-82
2022/06/03 08:53:18;;;;;;;16.73;16.03;;;36.40;56.00;;;;;;4990972;28;20972;-81
2022/06/03 08:55:52;;;;;;;17.37;16.67;;;36.80;54.80;;;;;;4990654;28;20516;-81
2022/06/03 08:58:29;;;;;;;17.83;17.00;;;37.30;53.40;;;;;;4991409;28;20458;-80
2022/06/03 09:01:02;;;;;;;17.87;17.17;;;37.60;53.20;;;;;;4991325;28;20605;-79
2022/06/03 09:03:38;;;;;;;18.20;17.33;;;38.00;52.20;;;;;;4991369;28;20442;-81
2022/06/03 09:06:11;;;;;;;18.73;17.93;;;38.30;50.80;;;;;;4991135;28;20450;-80
2022/06/03 09:08:43;;;;;;;18.10;17.30;;;37.30;51.90;;;;;;4990647;28;20523;-82
2022/06/03 09:11:16;;;;;;;18.20;17.40;;;36.00;53.60;;;;;;4991257;28;20466;-82
2022/06/03 09:13:49;;;;;;;18.37;17.47;;;35.80;54.70;;;;;;4992260;28;20455;-82
2022/06/03 09:16:20;;;;;;;19.13;18.23;;;36.50;53.30;;;;;;4997749;28;20443;-83
2022/06/03 09:18:52;;;;;;;18.90;18.20;;;37.30;52.30;;;;;;4995013;28;20537;-81
2022/06/03 09:21:23;;;;;;;19.80;18.80;;;37.40;51.50;;;;;;4994891;28;20465;-81
2022/06/03 09:23:54;;;;;;;19.50;18.50;;;37.50;52.30;;;;;;4994633;28;20955;-80
2022/06/03 09:26:25;;;;;;;18.50;17.70;;;38.40;50.30;;;;;;4994716;28;20555;-81
2022/06/03 09:28:53;;;;;;;18.60;17.60;;;38.10;49.90;;;;;;4995026;28;20505;-82
2022/06/03 09:31:22;;;;;;;18.30;17.30;;;37.60;51.00;;;;;;4994560;28;20916;-82
2022/06/03 09:33:51;;;;;;;17.70;17.00;;;37.50;51.60;;;;;;4994703;28;20450;-81
2022/06/03 09:36:20;;;;;;;18.87;18.17;;;37.80;51.40;;;;;;4994372;28;20481;-82
2022/06/03 09:38:50;;;;;;;19.60;18.57;;;37.90;50.90;;;;;;4994883;28;20462;-80
2022/06/03 09:41:20;;;;;;;19.13;18.13;;;38.50;50.50;;;;;;4994853;28;20454;-79
2022/06/03 09:43:50;;;;;;;18.23;17.43;;;38.90;50.00;;;;;;4995945;28;20525;-81
2022/06/03 09:46:18;;;;;;;18.73;17.83;;;39.20;48.60;;;;;;4995365;28;20859;-81
2022/06/03 09:48:45;;;;;;;18.30;17.60;;;39.30;49.00;;;;;;4994466;28;20454;-80
2022/06/03 09:51:19;;;;;;;18.93;18.00;;;39.60;48.30;;;;;;4994200;28;20450;-79
2022/06/03 09:53:46;;;;;;;18.10;17.40;;;40.20;47.50;;;;;;4994258;28;20482;-78
2022/06/03 09:56:20;;;;;;;19.47;18.47;;;40.70;46.50;;;;;;4994432;28;20536;-79
2022/06/03 09:58:49;;;;;;;19.47;18.67;;;40.30;46.40;;;;;;4994835;28;20489;-82
2022/06/03 10:01:16;;;;;;;19.60;18.70;;;40.50;46.40;;;;;;4994026;28;20486;-79
2022/06/03 10:03:43;;;;;;;19.30;18.40;;;40.50;45.80;;;;;;4994783;28;20470;-81
2022/06/03 10:06:42;;;;;;;18.13;17.37;;;40.30;45.80;;;;;;4994961;28;20573;-80
2022/06/03 10:14:28;;;;;;;20.20;19.40;;;40.50;45.00;;;;;;4996132;28;21035;-80
2022/06/03 10:16:54;;;;;;;20.80;19.90;;;40.10;45.40;;;;;;4994264;28;20454;-78
2022/06/03 10:19:22;;;;;;;18.90;18.00;;;39.70;46.60;;;;;;4994386;28;20491;-78
2022/06/03 10:21:53;;;;;;;19.33;18.27;;;40.70;45.20;;;;;;4994078;28;20898;-78
2022/06/03 10:24:29;;;;;;;18.90;17.80;;;41.20;44.10;;;;;;4993539;28;20528;-78
2022/06/03 10:27:00;;;;;;;18.70;17.90;;;41.70;43.10;;;;;;4992731;28;20453;-78
2022/06/03 10:29:29;;;;;;;20.77;19.70;;;41.60;42.50;;;;;;4993824;28;20888;-78
2022/06/03 10:32:00;;;;;;;19.93;18.83;;;42.40;41.70;;;;;;4993753;28;20887;-78
2022/06/03 10:34:32;;;;;;;19.97;19.10;;;42.60;40.70;;;;;;4994589;28;20828;-78
2022/06/03 10:36:58;;;;;;;20.37;19.50;;;42.60;41.00;;;;;;4993434;28;20511;-79
2022/06/03 10:39:30;;;;;;;19.50;18.70;;;42.10;41.00;;;;;;4993548;28;20541;-79
2022/06/03 10:41:59;;;;;;;18.53;17.73;;;41.50;41.70;;;;;;4993805;28;20462;-79
2022/06/03 10:44:28;;;;;;;20.00;19.10;;;40.90;42.40;;;;;;4993699;28;20450;-80
2022/06/03 10:46:57;;;;;;;20.17;19.30;;;41.10;42.30;;;;;;4993614;28;20450;-79
2022/06/03 10:49:27;;;;;;;19.23;18.37;;;40.40;42.30;;;;;;4993571;28;20446;-78
2022/06/03 11:03:05;;;;;;;18.90;18.10;;;40.40;43.20;;;;;;4993193;28;20476;-79
2022/06/03 11:05:35;;;;;;;17.00;16.40;;;41.00;41.80;;;;;;4992612;28;20455;-79
2022/06/03 11:08:05;;;;;;;17.50;16.80;;;39.90;42.00;;;;;;4992556;28;20455;-79
2022/06/03 11:10:42;;;;;;;18.20;17.27;;;38.20;44.30;;;;;;4993013;28;20501;-80
2022/06/03 11:13:10;;;;;;;15.63;15.13;;;36.80;46.60;;;;;;4993174;28;20455;-79
2022/06/03 11:15:40;;;;;;;16.77;16.17;;;35.70;48.30;;;;;;4993260;28;20454;-80
2022/06/03 11:18:15;;;;;;;18.20;17.40;;;35.20;49.20;;;;;;4993117;28;20494;-76
2022/06/03 11:20:43;;;;;;;18.10;17.40;;;34.70;50.40;;;;;;4992302;28;20486;-80
2022/06/03 11:23:11;;;;;;;16.90;16.30;;;34.20;51.30;;;;;;4992335;28;20843;-80
2022/06/03 11:25:42;;;;;;;17.50;16.80;;;34.00;52.10;;;;;;4992922;28;20447;-79
2022/06/03 11:28:13;;;;;;;17.33;16.57;;;33.50;53.10;;;;;;4992882;28;20454;-80
2022/06/03 11:30:46;;;;;;;17.93;17.13;;;33.10;53.90;;;;;;4992559;28;20454;-80
2022/06/03 11:33:25;;;;;;;18.00;17.20;;;32.80;54.70;;;;;;4992617;28;20506;-80
2022/06/03 11:35:56;;;;;;;17.70;16.70;;;32.50;54.90;;;;;;4992910;28;20458;-79
2022/06/03 11:38:28;;;;;;;16.53;15.83;;;32.20;56.10;;;;;;4992893;28;20458;-79
2022/06/03 11:41:01;;;;;;;18.87;18.07;;;32.40;55.60;;;;;;4992570;28;20482;-80
2022/06/03 11:43:35;;;;;;;18.13;17.43;;;32.30;55.50;;;;;;4995247;28;20792;-79
2022/06/03 11:46:05;;;;;;;18.00;17.00;;;31.90;55.80;;;;;;4995598;28;20454;-80
2022/06/03 11:48:35;;;;;;;17.30;16.60;;;31.70;56.60;;;;;;4992844;28;20451;-80
2022/06/03 11:51:02;;;;;;;18.30;17.40;;;31.40;58.00;;;;;;4992404;28;20489;-78
2022/06/03 11:53:33;;;;;;;17.40;16.30;;;31.10;63.30;;;;;;4996144;28;20490;-79
2022/06/03 11:56:03;;;;;;;16.80;16.10;;;30.40;66.40;;;;;;4994386;28;21020;-80
2022/06/03 11:58:41;;;;;;;16.10;15.40;;;29.80;66.80;;;;;;4992045;28;20451;-77
2022/06/03 12:01:12;;;;;;;17.47;16.53;;;29.70;67.20;;;;;;4992321;28;20548;-77
2022/06/03 12:03:43;;;;;;;17.60;16.70;;;29.70;67.20;;;;;;4992208;28;20455;-78
2022/06/03 12:06:13;;;;;;;15.97;15.17;;;29.70;67.70;;;;;;4991962;28;20933;-77
2022/06/03 12:08:51;;;;;;;16.33;15.53;;;30.10;67.00;;;;;;4992138;28;20458;-78
2022/06/03 12:14:28;;;;;;;15.70;15.00;;;30.20;67.00;;;;;;4991960;28;20477;-78
2022/06/03 12:16:59;;;;;;;16.40;15.60;;;30.00;67.60;;;;;;4991959;28;20453;-78
2022/06/03 12:19:38;;;;;;;15.30;14.50;;;30.10;67.60;;;;;;4991397;28;20457;-78
2022/06/03 12:22:38;;;;;;;16.90;16.20;;;30.30;67.80;;;;;;4992031;28;20451;-78
2022/06/03 12:25:08;;;;;;;17.23;16.40;;;30.20;67.80;;;;;;4991866;28;20451;-78
2022/06/03 12:27:39;;;;;;;16.77;15.97;;;30.00;69.40;;;;;;4991971;28;20458;-79
2022/06/03 12:30:32;;;;;;;16.07;15.27;;;30.40;68.80;;;;;;4991749;28;20936;-78
2022/06/03 12:33:02;;;;;;;17.40;16.47;;;31.00;68.00;;;;;;4991844;28;20482;-79
2022/06/03 12:35:58;;;;;;;16.53;15.57;;;30.30;66.50;;;;;;4991559;28;20546;-79
2022/06/03 12:38:45;;;;;;;16.97;16.17;;;29.90;68.60;;;;;;4991655;28;20451;-79
2022/06/03 12:41:33;;;;;;;14.50;13.77;;;29.90;69.60;;;;;;4991912;28;20497;-79
2022/06/03 12:44:01;;;;;;;18.47;17.47;;;29.90;70.20;;;;;;4990984;28;20742;-79
2022/06/03 12:46:40;;;;;;;16.93;16.23;;;30.10;70.60;;;;;;4990937;28;21147;-80
2022/06/03 12:49:19;;;;;;;16.90;16.20;;;30.00;71.70;;;;;;4990686;28;20474;-79
2022/06/03 12:52:01;;;;;;;15.50;14.70;;;30.10;70.90;;;;;;4992752;28;21015;-79
2022/06/03 12:54:29;;;;;;;14.77;14.17;;;30.10;70.80;;;;;;4991737;28;21014;-79
2022/06/03 12:57:05;;;;;;;15.97;15.17;;;30.30;71.20;;;;;;4993379;28;20446;-78
2022/06/03 12:59:44;;;;;;;15.10;14.50;;;30.30;69.20;;;;;;4992747;28;20502;-77
2022/06/03 13:02:18;;;;;;;15.10;14.10;;;30.00;69.00;;;;;;4991126;28;20793;-77
2022/06/03 13:05:08;;;;;;;16.63;15.63;;;29.90;70.30;;;;;;4991438;28;20451;-77
2022/06/03 13:07:39;;;;;;;17.20;16.50;;;30.00;71.10;;;;;;4990859;28;20450;-77
2022/06/03 13:10:26;;;;;;;16.40;15.70;;;29.90;72.40;;;;;;4990851;28;20483;-77
2022/06/03 13:12:54;;;;;;;15.97;15.17;;;29.80;72.60;;;;;;4990813;28;20462;-77
2022/06/03 13:15:46;;;;;;;21.70;20.60;;;30.00;72.50;;;;;;4990856;28;20442;-75
2022/06/03 13:18:18;;;;;;;19.33;18.43;;;29.70;81.20;;;;;;4990541;28;20449;-76
2022/06/03 13:20:47;;;;;;;16.80;15.80;;;28.60;88.20;;;;;;4990136;28;20499;-76
2022/06/03 13:23:33;;;;;;;16.60;15.90;;;28.20;90.70;;;;;;4990600;28;20505;-76
2022/06/03 13:26:33;;;;;;;18.00;17.20;;;28.30;90.10;;;;;;4990854;28;20481;-74
2022/06/03 13:29:01;;;;;;;16.90;16.00;;;28.30;92.40;;;;;;4990364;28;20453;-75
2022/06/03 13:32:00;;;;;;;17.10;16.00;;;28.30;92.30;;;;;;4990512;28;20454;-75
2022/06/03 13:34:41;;;;;;;16.60;15.70;;;28.40;92.30;;;;;;4990575;28;20471;-75
2022/06/03 13:37:31;;;;;;;18.20;17.20;;;28.20;91.70;;;;;;4990519;28;20916;-75
2022/06/03 13:40:19;;;;;;;16.63;15.63;;;28.00;92.20;;;;;;4987712;28;20451;-75
2022/06/03 13:43:02;;;;;;;17.07;16.07;;;27.90;92.30;;;;;;4988746;28;20513;-75
2022/06/03 13:45:46;;;;;;;15.70;14.80;;;27.80;92.90;;;;;;4987432;28;20450;-75
2022/06/03 13:48:17;;;;;;;17.87;16.83;;;27.90;92.60;;;;;;4989928;28;20772;-75
2022/06/03 13:50:44;;;;;;;16.03;15.00;;;27.80;92.50;;;;;;4990009;28;20814;-75
2022/06/03 13:53:21;;;;;;;17.50;16.70;;;27.90;93.30;;;;;;4989852;28;20485;-75
2022/06/03 13:55:52;;;;;;;16.53;15.80;;;27.80;93.70;;;;;;4989805;28;20487;-75
2022/06/03 13:58:25;;;;;;;16.57;15.63;;;27.80;94.10;;;;;;4990000;28;20450;-76
2022/06/03 14:00:59;;;;;;;18.20;17.07;;;28.00;93.20;;;;;;4990561;28;20483;-76
2022/06/03 14:03:32;;;;;;;19.30;18.50;;;28.00;94.30;;;;;;4993323;28;20454;-75
2022/06/03 14:06:06;;;;;;;20.70;19.30;;;27.60;95.50;;;;;;4993144;28;20979;-75
2022/06/03 14:08:35;;;;;;;17.20;16.30;;;27.20;98.00;;;;;;4993131;28;20454;-75
2022/06/03 14:11:10;;;;;;;15.90;15.30;;;26.90;99.10;;;;;;4993417;28;20455;-75
2022/06/03 14:13:44;;;;;;;16.90;15.37;;;26.90;98.30;;;;;;4993166;28;20453;-75
2022/06/03 14:16:15;;;;;;;17.13;15.83;;;27.10;97.80;;;;;;4993234;28;20457;-75
2022/06/03 14:18:51;;;;;;;17.77;16.20;;;27.20;96.10;;;;;;4993226;28;20462;-75
2022/06/03 14:21:25;;;;;;;17.53;16.40;;;27.20;95.80;;;;;;4993249;28;20494;-75
2022/06/03 14:23:54;;;;;;;18.17;17.03;;;27.30;95.30;;;;;;4993091;28;20474;-76
2022/06/03 14:26:25;;;;;;;17.20;16.30;;;27.30;95.00;;;;;;4993212;28;20949;-74
2022/06/03 14:28:58;;;;;;;17.53;16.63;;;27.40;94.50;;;;;;4993119;28;20455;-74
2022/06/03 14:31:36;;;;;;;16.33;15.53;;;27.30;94.50;;;;;;4992833;28;20936;-76
2022/06/03 14:34:16;;;;;;;17.40;16.50;;;27.10;94.90;;;;;;4992837;28;20455;-76
2022/06/03 14:36:43;;;;;;;17.97;16.93;;;27.00;95.30;;;;;;4992660;28;20481;-76
2022/06/03 14:39:14;;;;;;;17.57;16.37;;;26.90;95.40;;;;;;4992682;28;20960;-75
2022/06/03 14:41:44;;;;;;;16.07;15.27;;;27.00;95.10;;;;;;4992457;28;20482;-76
2022/06/03 14:44:15;;;;;;;15.93;15.13;;;27.30;94.40;;;;;;4992743;28;20497;-76
2022/06/03 14:46:50;;;;;;;15.93;15.00;;;27.50;93.90;;;;;;4992589;28;20455;-76
2022/06/03 14:49:25;;;;;;;16.50;15.60;;;27.80;93.50;;;;;;4992550;28;20482;-73
2022/06/03 14:51:56;;;;;;;16.23;15.33;;;28.10;92.20;;;;;;4992438;28;20466;-73
2022/06/03 14:54:28;;;;;;;16.90;16.10;;;28.70;91.70;;;;;;4992502;28;20577;-73
2022/06/03 14:57:01;;;;;;;16.37;15.57;;;29.20;90.70;;;;;;4992503;28;20521;-73
2022/06/03 14:59:55;;;;;;;16.00;15.30;;;29.90;88.60;;;;;;4992684;28;20462;-75
2022/06/03 15:02:31;;;;;;;17.17;16.37;;;30.40;86.10;;;;;;4992742;28;20491;-74
2022/06/03 15:05:08;;;;;;;17.13;16.00;;;30.70;83.80;;;;;;4992531;28;21125;-74
2022/06/03 15:07:41;;;;;;;17.10;16.20;;;30.70;83.90;;;;;;4990847;28;20469;-74
2022/06/03 15:10:12;;;;;;;16.17;15.20;;;30.70;82.00;;;;;;4992816;28;20454;-74
2022/06/03 15:12:49;;;;;;;16.63;15.83;;;30.40;81.90;;;;;;4992166;28;21060;-73
2022/06/03 15:15:23;;;;;;;16.50;15.77;;;30.20;81.40;;;;;;4992461;28;20459;-74
2022/06/03 15:17:50;;;;;;;15.13;14.53;;;30.10;81.00;;;;;;4992743;28;20466;-74
2022/06/03 15:20:18;;;;;;;17.43;16.43;;;30.20;81.60;;;;;;4992337;28;20509;-74
2022/06/03 15:22:48;;;;;;;15.43;14.77;;;30.50;81.40;;;;;;4992110;28;20483;-74
2022/06/03 15:25:19;;;;;;;16.00;15.30;;;30.70;80.90;;;;;;4992386;28;21156;-74
2022/06/03 15:27:49;;;;;;;15.60;14.90;;;30.50;81.30;;;;;;4992369;28;20808;-74
2022/06/03 15:30:21;;;;;;;16.83;15.93;;;30.60;81.00;;;;;;4992657;28;20463;-74
2022/06/03 15:32:48;;;;;;;18.03;17.23;;;30.60;80.60;;;;;;4992153;28;20458;-74
2022/06/03 15:35:23;;;;;;;17.40;16.47;;;30.50;80.40;;;;;;4992041;28;20458;-74
2022/06/03 15:37:51;;;;;;;17.60;16.30;;;30.30;80.80;;;;;;4992368;28;20462;-76
2022/06/03 15:40:23;;;;;;;16.30;15.60;;;30.10;82.00;;;;;;4991967;28;20457;-76
2022/06/03 15:42:51;;;;;;;15.73;15.13;;;29.40;82.40;;;;;;4991705;28;20486;-76
2022/06/03 15:45:39;;;;;;;16.97;16.07;;;29.30;84.30;;;;;;4992002;28;20530;-76
2022/06/03 15:48:08;;;;;;;16.40;15.60;;;29.30;84.30;;;;;;4992191;28;20952;-76
2022/06/03 15:50:38;;;;;;;15.80;15.10;;;29.50;84.10;;;;;;4991879;28;20450;-76
2022/06/03 15:53:05;;;;;;;16.37;15.67;;;29.90;83.10;;;;;;4991620;28;20486;-73
2022/06/03 15:55:38;;;;;;;17.63;16.60;;;30.20;82.50;;;;;;4991735;28;20486;-76
2022/06/03 15:58:12;;;;;;;17.23;16.23;;;30.50;81.80;;;;;;4992130;28;20451;-76
2022/06/03 16:00:43;;;;;;;16.80;16.00;;;30.70;81.30;;;;;;4991976;28;20510;-73
2022/06/03 16:03:16;;;;;;;16.40;15.60;;;30.50;82.40;;;;;;4991759;28;20439;-76
2022/06/03 16:05:51;;;;;;;17.40;16.50;;;30.10;84.30;;;;;;4991752;28;20725;-76
2022/06/03 16:08:30;;;;;;;19.43;18.10;;;29.70;84.90;;;;;;4991624;28;20462;-77
2022/06/03 16:11:09;;;;;;;19.27;17.70;;;29.30;87.20;;;;;;4991447;28;20505;-76
2022/06/03 16:13:48;;;;;;;15.90;15.10;;;29.20;87.30;;;;;;4991620;28;20447;-76
2022/06/03 16:16:31;;;;;;;17.43;16.43;;;29.20;86.70;;;;;;4991453;28;20459;-76
2022/06/03 16:19:10;;;;;;;14.83;14.13;;;29.30;87.20;;;;;;4991340;28;20457;-76
2022/06/03 16:21:52;;;;;;;16.57;15.80;;;29.30;86.80;;;;;;4991516;28;20490;-76
2022/06/03 16:24:28;;;;;;;17.00;16.20;;;29.40;86.80;;;;;;4990633;28;20511;-76
2022/06/03 16:27:10;;;;;;;16.77;15.70;;;29.80;86.50;;;;;;4991273;28;21036;-76
2022/06/03 16:29:55;;;;;;;16.23;15.47;;;29.90;85.20;;;;;;4991313;28;20538;-75
2022/06/03 16:32:31;;;;;;;17.47;16.47;;;29.80;84.70;;;;;;4991475;28;21000;-76
2022/06/03 16:35:07;;;;;;;15.97;15.13;;;29.80;85.00;;;;;;4990909;28;20482;-75
2022/06/03 16:37:41;;;;;;;15.83;15.03;;;29.80;84.80;;;;;;4991106;28;20545;-76
2022/06/03 16:40:15;;;;;;;16.70;15.60;;;29.70;85.40;;;;;;4991442;28;20493;-76
2022/06/03 16:42:52;;;;;;;15.93;15.23;;;29.40;86.10;;;;;;4990750;28;20485;-76
2022/06/03 16:48:26;;;;;;;17.70;16.40;;;28.70;90.00;;;;;;4991297;28;20646;-76
2022/06/03 16:50:53;;;;;;;18.77;17.77;;;28.80;90.80;;;;;;4991222;28;20458;-76
2022/06/03 16:53:28;;;;;;;18.70;17.20;;;28.70;91.10;;;;;;4990860;28;20470;-76
2022/06/03 16:55:57;;;;;;;18.00;16.90;;;28.70;91.40;;;;;;4990330;28;20593;-75
2022/06/03 16:58:25;;;;;;;18.47;17.30;;;28.90;91.40;;;;;;4990077;28;20462;-76
2022/06/03 17:00:56;;;;;;;17.13;16.30;;;29.00;90.90;;;;;;4990259;28;20451;-75
2022/06/03 17:03:29;;;;;;;16.83;15.90;;;28.90;91.00;;;;;;4990200;28;20486;-76
2022/06/03 17:06:00;;;;;;;19.40;18.30;;;28.50;91.50;;;;;;4989962;28;20454;-76
2022/06/03 17:08:36;;;;;;;18.90;17.90;;;28.10;91.60;;;;;;4989743;28;20465;-75
2022/06/03 17:11:06;;;;;;;19.20;18.17;;;27.60;92.30;;;;;;4990132;28;20454;-76
2022/06/03 17:13:33;;;;;;;17.53;16.73;;;27.40;92.90;;;;;;4990097;28;20462;-76
2022/06/03 17:16:00;;;;;;;18.47;17.13;;;27.30;93.10;;;;;;4989845;28;20462;-76
2022/06/03 17:18:28;;;;;;;18.20;17.10;;;27.00;93.60;;;;;;4989736;28;20513;-76
2022/06/03 17:21:07;;;;;;;18.20;17.30;;;26.90;94.30;;;;;;4989767;28;20462;-75
2022/06/03 17:23:59;;;;;;;18.90;17.90;;;26.80;94.70;;;;;;4989598;28;20443;-76
2022/06/03 17:26:32;;;;;;;18.43;17.20;;;26.70;94.80;;;;;;4989182;28;20865;-75
2022/06/03 17:29:05;;;;;;;17.17;16.17;;;26.60;95.40;;;;;;4989010;28;20450;-76
2022/06/03 17:31:41;;;;;;;18.43;17.10;;;26.50;95.60;;;;;;4989080;28;20446;-76
2022/06/03 17:34:27;;;;;;;25.10;23.80;;;26.40;95.70;;;;;;4989345;28;20449;-75
2022/06/03 17:37:01;;;;;;;34.73;32.57;;;26.10;98.30;;;;;;4992216;28;20450;-74
2022/06/03 17:39:41;;;;;;;37.60;35.13;;;25.30;99.90;;;;;;4992514;28;20883;-73
2022/06/03 17:42:18;;;;;;;36.27;34.10;;;24.50;99.90;;;;;;4992725;28;20546;-74
2022/06/03 17:44:52;;;;;;;35.50;33.50;;;24.00;99.90;;;;;;4992470;28;20466;-73
2022/06/03 17:47:36;;;;;;;36.83;34.63;;;23.60;99.90;;;;;;4992602;28;20461;-74
2022/06/03 17:50:08;;;;;;;37.93;35.47;;;23.30;99.90;;;;;;4992473;28;20457;-73
2022/06/03 17:55:41;;;;;;;38.78;36.00;;;22.70;99.90;;;;;;4957488;28;1030495;-77
2022/06/03 17:58:18;;;;;;;41.67;38.60;;;22.40;99.90;;;;;;4993853;28;20664;-77
2022/06/03 18:00:51;;;;;;;43.27;40.20;;;22.00;99.90;;;;;;4993603;28;20508;-76
2022/06/03 18:03:41;;;;;;;41.63;38.73;;;21.80;99.90;;;;;;4993345;28;20482;-80
2022/06/03 18:06:19;;;;;;;42.97;39.67;;;21.50;99.90;;;;;;4993572;28;20446;-80
2022/06/03 18:09:02;;;;;;;44.13;41.10;;;21.30;99.90;;;;;;4993225;28;20469;-77
2022/06/03 18:11:34;;;;;;;43.93;40.83;;;21.30;99.90;;;;;;4993339;28;20455;-77
2022/06/03 18:14:07;;;;;;;45.03;41.60;;;21.20;99.90;;;;;;4993371;28;20517;-77
2022/06/03 18:16:36;;;;;;;44.20;41.20;;;21.30;99.90;;;;;;4993398;28;20457;-76
2022/06/03 18:19:08;;;;;;;43.77;40.77;;;21.10;99.90;;;;;;4993266;28;20538;-76
2022/06/03 18:22:13;;;;;;;44.77;41.67;;;20.90;99.90;;;;;;4993385;28;20459;-76
2022/06/03 18:24:57;;;;;;;45.10;41.60;;;20.90;99.90;;;;;;4993259;28;20439;-76
2022/06/03 18:27:39;;;;;;;43.43;40.50;;;20.80;99.90;;;;;;4992892;28;20463;-76
2022/06/03 18:30:23;;;;;;;44.23;41.13;;;20.80;99.90;;;;;;4993127;28;20461;-76
2022/06/03 18:33:07;;;;;;;44.40;41.50;;;20.90;99.90;;;;;;4993099;28;20439;-76
2022/06/03 18:35:42;;;;;;;44.23;41.43;;;20.90;99.90;;;;;;4992969;28;20454;-76
2022/06/03 18:38:24;;;;;;;42.83;40.23;;;20.90;99.90;;;;;;4992743;28;20450;-76
2022/06/03 18:41:00;;;;;;;41.43;38.77;;;20.80;99.90;;;;;;4993179;28;20546;-76